createdAt,value
2018-11-03T00:00:18.400Z,63.70
2018-11-03T00:02:48.088Z,64.30
2018-11-03T00:05:17.453Z,63.70
2018-11-03T00:07:47.205Z,63.50
2018-11-03T00:10:16.446Z,63.50
2018-11-03T00:12:45.662Z,64.50
2018-11-03T00:15:14.928Z,63.60
2018-11-03T00:17:44.162Z,64.20
2018-11-03T00:20:13.409Z,64.50
2018-11-03T00:22:43.002Z,64.30
2018-11-03T00:25:12.224Z,63.90
2018-11-03T00:27:41.466Z,63.40
2018-11-03T00:30:12.529Z,64.30
2018-11-03T00:32:42.017Z,63.40
2018-11-03T00:35:11.716Z,63.40
2018-11-03T00:37:40.961Z,63.10
2018-11-03T00:40:12.704Z,63.20
2018-11-03T00:42:42.633Z,64.30
2018-11-03T00:45:12.922Z,64.70
2018-11-03T00:47:43.110Z,65.10
2018-11-03T00:50:14.608Z,64.60
2018-11-03T00:52:44.523Z,64.30
2018-11-03T00:55:14.412Z,64.50
2018-11-03T00:57:43.817Z,64.00
2018-11-03T01:00:15.194Z,63.60
2018-11-03T01:02:45.592Z,63.40
2018-11-03T01:05:14.923Z,64.10
2018-11-03T01:07:44.732Z,64.70
2018-11-03T01:10:14.078Z,64.80
2018-11-03T01:12:43.259Z,64.60
2018-11-03T01:15:13.753Z,65.10
2018-11-03T01:17:43.244Z,64.90
2018-11-03T01:20:14.410Z,64.80
2018-11-03T01:22:44.071Z,64.50
2018-11-03T01:25:13.291Z,64.60
2018-11-03T01:27:42.507Z,65.20
2018-11-03T01:30:14.260Z,65.00
2018-11-03T01:32:43.516Z,65.10
2018-11-03T01:35:12.756Z,65.00
2018-11-03T01:37:41.959Z,65.30
2018-11-03T01:40:12.602Z,65.00
2018-11-03T01:42:41.858Z,64.80
2018-11-03T01:45:11.114Z,64.30
2018-11-03T01:47:40.307Z,64.90
2018-11-03T01:50:11.530Z,65.10
2018-11-03T01:52:41.383Z,64.50
2018-11-03T01:55:10.839Z,64.60
2018-11-03T01:57:40.099Z,65.50
2018-11-03T02:00:10.608Z,65.60
2018-11-03T02:02:39.867Z,65.10
2018-11-03T02:05:09.899Z,66.20
2018-11-03T02:07:39.327Z,65.60
2018-11-03T02:10:09.548Z,66.20
2018-11-03T02:12:38.878Z,64.20
2018-11-03T02:15:08.503Z,65.30
2018-11-03T02:17:37.982Z,66.50
2018-11-03T02:20:08.470Z,66.40
2018-11-03T02:22:38.572Z,66.30
2018-11-03T02:25:08.216Z,66.20
2018-11-03T02:27:37.417Z,66.20
2018-11-03T02:30:07.638Z,65.90
2018-11-03T02:32:36.812Z,65.60
2018-11-03T02:35:06.728Z,66.60
2018-11-03T02:37:35.935Z,66.60
2018-11-03T02:40:06.652Z,65.00
2018-11-03T02:42:35.838Z,65.30
2018-11-03T02:45:06.420Z,67.20
2018-11-03T02:47:35.639Z,66.60
2018-11-03T02:50:06.207Z,67.40
2018-11-03T02:52:35.431Z,66.30
2018-11-03T02:55:05.106Z,65.10
2018-11-03T02:57:34.724Z,66.90
2018-11-03T03:00:04.576Z,66.80
2018-11-03T03:02:33.799Z,66.30
2018-11-03T03:05:03.016Z,67.30
2018-11-03T03:07:32.475Z,67.10
2018-11-03T03:10:01.690Z,67.50
2018-11-03T03:12:31.007Z,66.80
2018-11-03T03:15:00.244Z,66.90
2018-11-03T03:17:29.387Z,66.50
2018-11-03T03:19:58.587Z,67.10
2018-11-03T03:22:27.795Z,66.20
2018-11-03T03:24:56.988Z,67.00
2018-11-03T03:27:26.195Z,67.00
2018-11-03T03:29:55.576Z,67.10
2018-11-03T03:32:24.793Z,67.20
2018-11-03T03:34:53.947Z,66.90
2018-11-03T03:37:23.195Z,67.00
2018-11-03T03:39:52.512Z,66.80
2018-11-03T03:42:21.848Z,66.80
2018-11-03T03:44:51.051Z,66.80
2018-11-03T03:47:20.224Z,66.30
2018-11-03T03:49:49.418Z,66.90
2018-11-03T03:52:18.975Z,66.50
2018-11-03T03:54:48.190Z,67.40
2018-11-03T03:57:17.383Z,67.40
2018-11-03T03:59:46.964Z,67.10
2018-11-03T04:02:16.141Z,66.90
2018-11-03T04:04:45.328Z,67.20
2018-11-03T04:07:14.591Z,67.30
2018-11-03T04:09:43.764Z,66.90
2018-11-03T04:12:12.940Z,67.20
2018-11-03T04:14:42.393Z,66.70
2018-11-03T04:17:11.567Z,67.30
2018-11-03T04:19:40.767Z,66.70
2018-11-03T04:22:09.976Z,67.90
2018-11-03T04:24:39.173Z,67.70
2018-11-03T04:27:08.401Z,67.60
2018-11-03T04:29:37.592Z,67.40
2018-11-03T04:32:06.777Z,67.20
2018-11-03T04:34:35.965Z,67.40
2018-11-03T04:37:05.391Z,66.80
2018-11-03T04:39:34.568Z,67.30
2018-11-03T04:42:03.815Z,67.30
2018-11-03T04:44:33.022Z,67.20
2018-11-03T04:47:02.479Z,68.60
2018-11-03T04:49:31.652Z,67.40
2018-11-03T04:52:01.047Z,67.80
2018-11-03T04:54:30.244Z,67.90
2018-11-03T04:56:59.409Z,67.20
2018-11-03T04:59:28.866Z,67.80
2018-11-03T05:01:58.286Z,68.00
2018-11-03T05:04:27.503Z,67.10
2018-11-03T05:06:56.727Z,68.30
2018-11-03T05:09:25.941Z,67.80
2018-11-03T05:11:55.091Z,68.00
2018-11-03T05:14:24.299Z,67.70
2018-11-03T05:16:54.025Z,67.20
2018-11-03T05:19:23.223Z,67.40
2018-11-03T05:21:52.596Z,67.90
2018-11-03T05:24:21.760Z,67.60
2018-11-03T05:26:50.951Z,67.60
2018-11-03T05:29:20.157Z,68.00
2018-11-03T05:31:49.504Z,67.90
2018-11-03T05:34:18.686Z,67.60
2018-11-03T05:36:47.897Z,68.20
2018-11-03T05:39:17.094Z,67.20
2018-11-03T05:41:46.258Z,68.40
2018-11-03T05:44:15.696Z,67.70
2018-11-03T05:46:44.971Z,68.70
2018-11-03T05:49:14.059Z,68.50
2018-11-03T05:51:43.275Z,68.00
2018-11-03T05:54:12.445Z,68.00
2018-11-03T05:56:41.627Z,68.90
2018-11-03T05:59:10.847Z,68.00
2018-11-03T06:01:40.037Z,68.90
2018-11-03T06:04:09.515Z,69.10
2018-11-03T06:06:39.076Z,68.50
2018-11-03T06:09:09.668Z,68.70
2018-11-03T06:11:38.848Z,68.00
2018-11-03T06:14:08.080Z,69.10
2018-11-03T06:16:37.259Z,68.50
2018-11-03T06:19:06.311Z,68.50
2018-11-03T06:21:35.587Z,68.60
2018-11-03T06:24:05.259Z,69.00
2018-11-03T06:26:34.457Z,68.80
2018-11-03T06:29:04.108Z,69.30
2018-11-03T06:31:33.280Z,69.70
2018-11-03T06:34:02.650Z,68.80
2018-11-03T06:36:31.903Z,71.40
2018-11-03T06:39:01.116Z,70.30
2018-11-03T06:41:30.405Z,69.40
2018-11-03T06:43:59.648Z,70.20
2018-11-03T06:46:28.971Z,71.40
2018-11-03T06:49:03.631Z,70.70
2018-11-03T06:51:33.003Z,70.50
2018-11-03T06:54:02.940Z,69.80
2018-11-03T06:56:33.011Z,70.70
2018-11-03T06:59:02.379Z,70.00
2018-11-03T07:01:31.752Z,71.20
2018-11-03T07:04:01.048Z,70.50
2018-11-03T07:06:30.643Z,70.20
2018-11-03T07:08:59.836Z,70.60
2018-11-03T07:11:29.441Z,72.40
2018-11-03T07:13:58.636Z,72.20
2018-11-03T07:16:27.811Z,72.40
2018-11-03T07:18:57.053Z,71.50
2018-11-03T07:21:26.260Z,71.20
2018-11-03T07:23:55.445Z,72.10
2018-11-03T07:26:24.655Z,71.30
2018-11-03T07:28:54.044Z,72.20
2018-11-03T07:31:23.245Z,73.10
2018-11-03T07:33:53.335Z,73.60
2018-11-03T07:36:22.543Z,72.80
2018-11-03T07:38:51.732Z,72.80
2018-11-03T07:41:21.002Z,73.70
2018-11-03T07:43:50.223Z,73.30
2018-11-03T07:46:19.416Z,73.20
2018-11-03T07:48:48.900Z,72.80
2018-11-03T07:51:18.035Z,72.30
2018-11-03T07:53:47.221Z,72.00
2018-11-03T07:56:16.603Z,72.20
2018-11-03T07:58:46.000Z,72.70
2018-11-03T08:01:15.276Z,72.60
2018-11-03T08:03:45.071Z,71.90
2018-11-03T08:06:14.247Z,71.50
2018-11-03T08:08:44.371Z,72.30
2018-11-03T08:11:13.581Z,71.30
2018-11-03T08:13:42.779Z,71.10
2018-11-03T08:16:12.016Z,71.00
2018-11-03T08:18:41.563Z,71.10
2018-11-03T08:21:10.777Z,70.80
2018-11-03T08:23:39.969Z,70.80
2018-11-03T08:26:09.182Z,71.80
2018-11-03T08:28:38.379Z,71.90
2018-11-03T08:31:07.591Z,71.20
2018-11-03T08:33:36.797Z,70.70
2018-11-03T08:36:06.476Z,69.30
2018-11-03T08:38:36.006Z,68.90
2018-11-03T08:41:06.211Z,69.40
2018-11-03T08:43:35.600Z,68.20
2018-11-03T08:46:05.523Z,67.30
2018-11-03T08:48:34.792Z,68.50
2018-11-03T08:51:03.945Z,68.50
2018-11-03T08:53:34.868Z,68.80
2018-11-03T08:56:04.264Z,68.70
2018-11-03T08:58:33.803Z,68.70
2018-11-03T09:01:05.742Z,69.10
2018-11-03T09:03:37.299Z,69.40
2018-11-03T09:06:07.048Z,68.10
2018-11-03T09:08:36.531Z,67.80
2018-11-03T09:11:05.919Z,66.80
2018-11-03T09:13:35.133Z,67.20
2018-11-03T09:16:04.380Z,67.50
2018-11-03T09:18:33.604Z,68.50
2018-11-03T09:21:03.241Z,68.00
2018-11-03T09:23:34.731Z,68.20
2018-11-03T09:26:06.640Z,69.10
2018-11-03T09:28:35.884Z,69.10
2018-11-03T09:31:05.204Z,71.10
2018-11-03T09:33:34.476Z,69.90
2018-11-03T09:36:03.828Z,67.70
2018-11-03T09:38:33.401Z,71.20
2018-11-03T09:41:02.873Z,69.90
2018-11-03T09:43:32.193Z,68.80
2018-11-03T09:46:01.313Z,67.90
2018-11-03T09:48:30.817Z,66.80
2018-11-03T09:51:00.168Z,62.00
2018-11-03T09:53:29.510Z,60.80
2018-11-03T09:55:58.755Z,61.10
2018-11-03T09:58:27.947Z,63.10
2018-11-03T10:00:57.383Z,59.60
2018-11-03T10:03:26.967Z,59.90
2018-11-03T10:05:56.284Z,61.40
2018-11-03T10:08:25.527Z,62.40
2018-11-03T10:10:54.940Z,61.40
2018-11-03T10:13:24.131Z,58.10
2018-11-03T10:15:53.421Z,60.00
2018-11-03T10:18:22.593Z,60.10
2018-11-03T10:20:51.827Z,58.00
2018-11-03T10:23:22.356Z,59.50
2018-11-03T10:25:51.876Z,59.60
2018-11-03T10:28:21.078Z,61.60
2018-11-03T10:30:50.589Z,59.20
2018-11-03T10:33:19.900Z,59.70
2018-11-03T10:35:50.335Z,57.50
2018-11-03T10:38:19.603Z,56.80
2018-11-03T10:40:48.999Z,56.70
2018-11-03T10:43:18.219Z,56.80
2018-11-03T10:45:47.463Z,57.10
2018-11-03T10:48:17.111Z,58.20
2018-11-03T10:50:46.399Z,57.70
2018-11-03T10:53:15.747Z,57.40
2018-11-03T10:55:45.013Z,58.20
2018-11-03T10:58:14.392Z,58.30
2018-11-03T11:00:49.106Z,59.10
2018-11-03T11:03:23.468Z,57.70
2018-11-03T11:05:57.273Z,56.40
2018-11-03T11:08:31.767Z,56.90
2018-11-03T11:12:16.292Z,57.30
2018-11-03T11:14:45.491Z,56.30
2018-11-03T11:17:14.748Z,57.10
2018-11-03T11:19:43.987Z,57.50
2018-11-03T11:22:13.240Z,57.00
2018-11-03T11:24:42.501Z,56.40
2018-11-03T11:27:12.167Z,56.60
2018-11-03T11:29:41.368Z,56.40
2018-11-03T11:32:10.584Z,56.40
2018-11-03T11:34:40.788Z,56.80
2018-11-03T11:37:11.332Z,56.10
2018-11-03T11:39:40.652Z,56.30
2018-11-03T11:42:10.036Z,55.40
2018-11-03T11:44:39.607Z,55.80
2018-11-03T11:47:08.828Z,55.70
2018-11-03T11:49:38.124Z,55.80
2018-11-03T11:52:07.467Z,55.80
2018-11-03T11:54:37.003Z,55.90
2018-11-03T11:57:06.335Z,56.40
2018-11-03T11:59:35.611Z,55.80
2018-11-03T12:02:05.472Z,56.50
2018-11-03T12:04:34.865Z,56.40
2018-11-03T12:07:04.144Z,56.10
2018-11-03T12:09:33.464Z,56.00
2018-11-03T12:12:02.744Z,56.40
2018-11-03T12:14:31.956Z,55.90
2018-11-03T12:17:01.193Z,56.10
2018-11-03T12:19:30.418Z,55.70
2018-11-03T12:21:59.907Z,56.40
2018-11-03T12:24:29.199Z,56.20
2018-11-03T12:26:58.749Z,56.00
2018-11-03T12:29:29.023Z,56.00
2018-11-03T12:31:58.784Z,55.50
2018-11-03T12:34:28.340Z,55.70
2018-11-03T12:36:57.967Z,55.50
2018-11-03T12:39:27.462Z,55.50
2018-11-03T12:41:56.826Z,55.70
2018-11-03T12:44:26.140Z,55.60
2018-11-03T12:46:55.443Z,55.60
2018-11-03T12:49:24.705Z,56.00
2018-11-03T12:51:58.041Z,56.00
2018-11-03T12:54:27.352Z,56.00
2018-11-03T12:56:58.666Z,56.20
2018-11-03T12:59:28.184Z,56.20
2018-11-03T13:01:57.327Z,56.30
2018-11-03T13:04:26.620Z,56.00
2018-11-03T13:06:56.384Z,56.40
2018-11-03T13:09:25.922Z,56.30
2018-11-03T13:11:55.919Z,56.40
2018-11-03T13:14:25.432Z,56.70
2018-11-03T13:16:55.056Z,56.40
2018-11-03T13:19:24.560Z,56.90
2018-11-03T13:21:54.003Z,56.70
2018-11-03T13:24:23.542Z,56.10
2018-11-03T13:26:52.800Z,56.30
2018-11-03T13:29:23.355Z,56.10
2018-11-03T13:31:54.110Z,56.10
2018-11-03T13:34:23.468Z,56.20
2018-11-03T13:36:53.025Z,56.20
2018-11-03T13:39:22.378Z,56.30
2018-11-03T13:41:51.679Z,55.90
2018-11-03T13:44:22.579Z,55.90
2018-11-03T13:46:51.835Z,55.80
2018-11-03T13:49:23.873Z,55.90
2018-11-03T13:51:59.658Z,56.10
2018-11-03T13:54:29.569Z,55.90
2018-11-03T13:56:58.902Z,55.80
2018-11-03T13:59:28.128Z,56.00
2018-11-03T14:01:58.388Z,55.80
2018-11-03T14:04:27.690Z,55.70
2018-11-03T14:06:58.248Z,55.80
2018-11-03T14:09:27.511Z,55.70
2018-11-03T14:11:56.869Z,55.40
2018-11-03T14:14:26.130Z,55.80
2018-11-03T14:16:56.958Z,55.70
2018-11-03T14:19:28.384Z,56.00
2018-11-03T14:21:59.013Z,56.00
2018-11-03T14:24:28.527Z,56.00
2018-11-03T14:26:57.816Z,56.40
2018-11-03T14:29:29.277Z,56.10
2018-11-03T14:31:58.587Z,56.20
2018-11-03T14:34:27.863Z,56.80
2018-11-03T14:36:58.679Z,56.40
2018-11-03T14:39:28.063Z,56.60
2018-11-03T14:41:57.567Z,56.70
2018-11-03T14:44:26.992Z,57.00
2018-11-03T14:46:56.680Z,57.10
2018-11-03T14:49:26.144Z,57.10
2018-11-03T14:51:55.575Z,57.00
2018-11-03T14:54:25.051Z,56.90
2018-11-03T14:56:56.747Z,57.20
2018-11-03T14:59:26.087Z,57.20
2018-11-03T15:01:55.422Z,57.10
2018-11-03T15:04:24.722Z,57.10
2018-11-03T15:06:54.043Z,57.30
2018-11-03T15:09:23.288Z,57.40
2018-11-03T15:11:52.651Z,57.20
2018-11-03T15:14:22.198Z,57.60
2018-11-03T15:16:52.546Z,57.40
2018-11-03T15:19:22.612Z,57.30
2018-11-03T15:21:52.891Z,57.30
2018-11-03T15:24:22.187Z,57.30
2018-11-03T15:26:52.461Z,57.00
2018-11-03T15:29:21.727Z,57.40
2018-11-03T15:31:52.219Z,57.20
2018-11-03T15:34:23.951Z,57.60
2018-11-03T15:36:53.475Z,57.40
2018-11-03T15:39:23.235Z,57.40
2018-11-03T15:41:52.587Z,57.20
2018-11-03T15:44:23.073Z,57.20
2018-11-03T15:46:52.345Z,57.60
2018-11-03T15:49:21.716Z,57.70
2018-11-03T15:51:50.988Z,57.50
2018-11-03T15:54:21.488Z,57.80
2018-11-03T15:56:51.031Z,57.20
2018-11-03T15:59:26.003Z,57.50
2018-11-03T16:01:55.599Z,57.50
2018-11-03T16:04:26.271Z,57.40
2018-11-03T16:06:55.702Z,57.60
2018-11-03T16:09:24.975Z,57.70
2018-11-03T16:11:54.425Z,57.60
2018-11-03T16:14:23.859Z,57.60
2018-11-03T16:16:54.368Z,57.80
2018-11-03T16:19:23.722Z,57.80
2018-11-03T16:21:52.995Z,58.20
2018-11-03T16:24:22.345Z,57.90
2018-11-03T16:26:51.681Z,57.80
2018-11-03T16:29:20.914Z,58.60
2018-11-03T16:31:50.284Z,58.10
2018-11-03T16:34:19.580Z,58.40
2018-11-03T16:36:50.324Z,58.00
2018-11-03T16:39:19.904Z,58.50
2018-11-03T16:41:50.191Z,58.40
2018-11-03T16:44:20.726Z,58.50
2018-11-03T16:46:50.960Z,58.20
2018-11-03T16:49:21.678Z,58.10
2018-11-03T16:51:51.068Z,58.30
2018-11-03T16:54:20.416Z,58.00
2018-11-03T16:56:51.459Z,58.20
2018-11-03T16:59:20.796Z,58.50
2018-11-03T17:01:50.444Z,58.30
2018-11-03T17:04:20.406Z,58.30
2018-11-03T17:06:51.015Z,58.40
2018-11-03T17:09:20.144Z,58.30
2018-11-03T17:11:49.497Z,58.70
2018-11-03T17:14:19.992Z,58.60
2018-11-03T17:16:49.263Z,58.50
2018-11-03T17:19:22.941Z,58.60
2018-11-03T17:21:53.410Z,58.60
2018-11-03T17:24:22.617Z,58.80
2018-11-03T17:26:52.142Z,58.90
2018-11-03T17:29:21.624Z,58.70
2018-11-03T17:31:50.823Z,58.80
2018-11-03T17:34:24.368Z,58.70
2018-11-03T17:36:53.616Z,58.70
2018-11-03T17:39:23.156Z,59.20
2018-11-03T17:41:52.514Z,58.90
2018-11-03T17:44:21.933Z,59.10
2018-11-03T17:46:51.615Z,59.00
2018-11-03T17:49:21.151Z,59.10
2018-11-03T17:51:50.583Z,59.00
2018-11-03T17:54:19.885Z,59.20
2018-11-03T17:56:52.520Z,59.20
2018-11-03T17:59:22.771Z,59.40
2018-11-03T18:01:52.087Z,59.60
2018-11-03T18:04:22.060Z,59.50
2018-11-03T18:06:51.339Z,59.20
2018-11-03T18:09:20.680Z,59.20
2018-11-03T18:11:51.346Z,59.50
2018-11-03T18:14:20.855Z,59.30
2018-11-03T18:16:50.067Z,59.40
2018-11-03T18:19:19.643Z,60.20
2018-11-03T18:21:48.852Z,60.20
2018-11-03T18:24:20.155Z,59.80
2018-11-03T18:26:49.454Z,59.70
2018-11-03T18:29:18.663Z,60.10
2018-11-03T18:31:47.864Z,59.80
2018-11-03T18:34:17.102Z,60.30
2018-11-03T18:36:46.350Z,59.80
2018-11-03T18:39:15.699Z,60.40
2018-11-03T18:41:45.379Z,59.80
2018-11-03T18:44:14.783Z,59.90
2018-11-03T18:46:44.551Z,60.20
2018-11-03T18:49:14.036Z,59.80
2018-11-03T18:51:44.595Z,60.20
2018-11-03T18:54:13.859Z,60.20
2018-11-03T18:56:43.146Z,60.10
2018-11-03T18:59:12.531Z,60.30
2018-11-03T19:01:42.331Z,60.00
2018-11-03T19:04:12.134Z,60.50
2018-11-03T19:06:41.399Z,60.30
2018-11-03T19:09:10.709Z,60.00
2018-11-03T19:11:39.823Z,60.20
2018-11-03T19:14:09.296Z,60.50
2018-11-03T19:16:38.567Z,60.20
2018-11-03T19:19:07.801Z,60.90
2018-11-03T19:21:37.319Z,60.80
2018-11-03T19:24:06.894Z,60.70
2018-11-03T19:26:36.337Z,60.70
2018-11-03T19:29:05.748Z,61.40
2018-11-03T19:31:35.214Z,60.60
2018-11-03T19:34:04.829Z,60.40
2018-11-03T19:36:34.114Z,61.30
2018-11-03T19:39:03.648Z,60.90
2018-11-03T19:41:32.923Z,61.20
2018-11-03T19:44:06.276Z,60.80
2018-11-03T19:46:35.628Z,60.60
2018-11-03T19:49:04.904Z,60.90
2018-11-03T19:51:34.323Z,61.20
2018-11-03T19:54:03.570Z,60.90
2018-11-03T19:56:32.847Z,61.20
2018-11-03T19:59:02.192Z,61.10
2018-11-03T20:01:31.789Z,61.40
2018-11-03T20:04:00.977Z,61.50
2018-11-03T20:06:30.399Z,61.50
2018-11-03T20:08:59.627Z,61.70
2018-11-03T20:11:28.881Z,61.70
2018-11-03T20:13:58.321Z,61.50
2018-11-03T20:16:27.499Z,61.70
2018-11-03T20:18:56.844Z,61.50
2018-11-03T20:21:26.391Z,61.30
2018-11-03T20:23:56.729Z,61.50
2018-11-03T20:26:25.907Z,61.50
2018-11-03T20:28:57.677Z,61.70
2018-11-03T20:31:27.257Z,61.70
2018-11-03T20:33:56.656Z,62.30
2018-11-03T20:36:25.993Z,62.40
2018-11-03T20:38:56.490Z,62.40
2018-11-03T20:41:25.704Z,62.10
2018-11-03T20:43:56.026Z,62.50
2018-11-03T20:46:25.227Z,62.60
2018-11-03T20:48:54.925Z,62.30
2018-11-03T20:51:24.466Z,62.60
2018-11-03T20:53:53.919Z,62.00
2018-11-03T20:56:23.079Z,62.60
2018-11-03T20:58:52.432Z,62.00
2018-11-03T21:01:21.696Z,62.10
2018-11-03T21:03:51.032Z,62.30
2018-11-03T21:06:20.271Z,63.00
2018-11-03T21:08:49.551Z,62.50
2018-11-03T21:11:18.908Z,62.50
2018-11-03T21:13:49.211Z,62.70
2018-11-03T21:16:18.686Z,63.90
2018-11-03T21:18:48.193Z,63.00
2018-11-03T21:21:17.680Z,63.10
2018-11-03T21:23:46.996Z,62.80
2018-11-03T21:26:16.280Z,63.00
2018-11-03T21:28:45.528Z,64.00
2018-11-03T21:31:14.919Z,63.30
2018-11-03T21:33:44.223Z,63.70
2018-11-03T21:36:14.000Z,63.10
2018-11-03T21:38:45.560Z,63.30
2018-11-03T21:41:14.909Z,63.70
2018-11-03T21:43:44.120Z,63.20
2018-11-03T21:46:13.760Z,63.30
2018-11-03T21:48:42.941Z,63.50
2018-11-03T21:51:14.491Z,63.70
2018-11-03T21:53:43.851Z,63.60
2018-11-03T21:56:13.271Z,63.80
2018-11-03T21:58:46.739Z,64.30
2018-11-03T22:01:16.020Z,64.80
2018-11-03T22:03:45.426Z,63.70
2018-11-03T22:06:15.626Z,64.10
2018-11-03T22:08:44.844Z,64.10
2018-11-03T22:11:14.709Z,64.20
2018-11-03T22:13:44.093Z,64.20
2018-11-03T22:16:13.803Z,65.00
2018-11-03T22:18:43.004Z,65.50
2018-11-03T22:21:12.251Z,64.90
2018-11-03T22:23:41.472Z,65.10
2018-11-03T22:26:11.328Z,65.10
2018-11-03T22:28:40.759Z,65.00
2018-11-03T22:31:11.317Z,65.30
2018-11-03T22:33:40.595Z,65.30
2018-11-03T22:36:09.840Z,65.20
2018-11-03T22:38:39.211Z,65.40
2018-11-03T22:41:08.452Z,65.00
2018-11-03T22:43:37.879Z,64.90
2018-11-03T22:46:07.260Z,65.30
2018-11-03T22:48:36.753Z,65.50
2018-11-03T22:51:11.472Z,65.90
2018-11-03T22:53:40.691Z,65.80
2018-11-03T22:56:09.901Z,66.50
2018-11-03T22:58:39.290Z,67.00
2018-11-03T23:01:08.802Z,66.50
2018-11-03T23:03:39.334Z,67.00
2018-11-03T23:06:08.547Z,66.90
2018-11-03T23:08:37.771Z,67.00
2018-11-03T23:11:07.183Z,66.80
2018-11-03T23:13:36.416Z,67.10
2018-11-03T23:16:06.451Z,66.70
2018-11-03T23:18:35.682Z,66.90
2018-11-03T23:21:05.245Z,67.30
2018-11-03T23:23:34.452Z,66.90
2018-11-03T23:26:03.699Z,66.90
2018-11-03T23:28:33.752Z,67.30
2018-11-03T23:31:02.941Z,67.50
2018-11-03T23:33:32.388Z,67.30
2018-11-03T23:36:01.783Z,67.30
2018-11-03T23:38:30.980Z,67.70
2018-11-03T23:41:01.252Z,67.50
2018-11-03T23:43:30.619Z,67.30
2018-11-03T23:45:59.820Z,67.00
2018-11-03T23:48:29.206Z,66.90
2018-11-03T23:50:58.461Z,67.30
2018-11-03T23:53:27.802Z,67.50
2018-11-03T23:55:56.995Z,67.60
2018-11-03T23:58:26.391Z,67.60
